Terminal Aerodrome Forecast
Issued by NWS Jacksonville, FL

Home | Current Version | Previous Version | Text Only | Print | Product List | Glossary On
Versions: 1 2 3 4 5 6 7 8 9 10 11 12 13
180
FTUS42 KJAX 301737
TAFSSI
TAF
KSSI 301737Z 3018/3118 15010KT P6SM SCT050
     FM310200 19009KT P6SM FEW050 SCT250
     FM311000 23006KT P6SM BKN250
     FM311500 19006KT P6SM SCT025=

USA.gov is the U.S. government's official web portal to all federal, state and local government web resources and services.